createdAt,value
2019-05-29T00:00:42.920Z,3.23
2019-05-29T00:03:12.331Z,3.10
2019-05-29T00:05:40.507Z,3.30
2019-05-29T00:08:08.286Z,3.07
2019-05-29T00:10:36.286Z,3.03
2019-05-29T00:13:04.237Z,3.20
2019-05-29T00:15:32.161Z,2.83
2019-05-29T00:17:59.799Z,2.80
2019-05-29T00:20:28.147Z,3.00
2019-05-29T00:22:56.106Z,2.90
2019-05-29T00:25:24.145Z,2.93
2019-05-29T00:27:51.782Z,3.20
2019-05-29T00:30:19.758Z,2.87
2019-05-29T00:32:47.678Z,2.80
2019-05-29T00:35:16.374Z,2.67
2019-05-29T00:37:44.505Z,2.77
2019-05-29T00:40:13.211Z,2.60
2019-05-29T00:42:41.067Z,2.90
2019-05-29T00:45:09.524Z,2.83
2019-05-29T00:47:37.516Z,2.67
2019-05-29T00:50:05.692Z,2.83
2019-05-29T00:52:33.881Z,2.70
2019-05-29T00:55:02.162Z,2.80
2019-05-29T00:57:30.455Z,3.00
2019-05-29T00:59:58.580Z,3.00
2019-05-29T01:02:26.625Z,2.60
2019-05-29T01:04:54.617Z,2.80
2019-05-29T01:07:22.996Z,2.93
2019-05-29T01:09:50.948Z,3.07
2019-05-29T01:12:19.182Z,3.07
2019-05-29T01:14:50.146Z,2.90
2019-05-29T01:17:17.623Z,2.60
2019-05-29T01:19:45.965Z,3.00
2019-05-29T01:22:14.138Z,2.90
2019-05-29T01:24:42.127Z,3.10
2019-05-29T01:27:10.012Z,2.87
2019-05-29T01:29:37.961Z,3.07
2019-05-29T01:32:05.942Z,2.73
2019-05-29T01:34:33.573Z,2.77
2019-05-29T01:37:01.893Z,3.00
2019-05-29T01:39:30.408Z,2.47
2019-05-29T01:41:58.045Z,2.57
2019-05-29T01:44:27.722Z,2.47
2019-05-29T01:46:55.817Z,2.40
2019-05-29T01:49:23.937Z,2.47
2019-05-29T01:51:52.213Z,2.50
2019-05-29T01:54:19.890Z,2.17
2019-05-29T01:56:47.534Z,2.93
2019-05-29T01:59:15.738Z,2.10
2019-05-29T02:01:44.092Z,2.13
2019-05-29T02:04:12.063Z,2.20
2019-05-29T02:06:39.808Z,2.00
2019-05-29T02:09:07.448Z,2.40
2019-05-29T02:11:35.961Z,2.20
2019-05-29T02:14:03.591Z,2.37
2019-05-29T02:16:32.289Z,2.30
2019-05-29T02:19:00.483Z,2.60
2019-05-29T02:21:28.495Z,2.50
2019-05-29T02:23:56.482Z,2.43
2019-05-29T02:26:24.705Z,2.00
2019-05-29T02:28:52.959Z,2.40
2019-05-29T02:31:21.999Z,2.17
2019-05-29T02:33:50.969Z,2.47
2019-05-29T02:36:20.398Z,2.80
2019-05-29T02:38:48.345Z,2.53
2019-05-29T02:41:16.318Z,2.47
2019-05-29T02:43:44.542Z,2.20
2019-05-29T02:46:12.445Z,2.30
2019-05-29T02:48:40.523Z,2.17
2019-05-29T02:51:12.198Z,2.40
2019-05-29T02:53:38.463Z,2.50
2019-05-29T02:56:06.101Z,2.43
2019-05-29T02:58:34.104Z,2.20
2019-05-29T03:01:02.163Z,2.33
2019-05-29T03:03:38.002Z,2.27
2019-05-29T03:05:59.438Z,2.20
2019-05-29T03:08:29.541Z,2.30
2019-05-29T03:10:57.288Z,2.57
2019-05-29T03:13:25.583Z,2.20
2019-05-29T03:16:09.895Z,2.47
2019-05-29T03:18:23.972Z,2.43
2019-05-29T03:20:52.495Z,2.43
2019-05-29T03:23:20.592Z,2.40
2019-05-29T03:25:48.522Z,2.23
2019-05-29T03:28:16.507Z,2.40
2019-05-29T03:30:46.319Z,2.30
2019-05-29T03:33:14.479Z,2.50
2019-05-29T03:35:47.608Z,2.57
2019-05-29T03:38:12.352Z,2.50
2019-05-29T03:40:40.352Z,2.43
2019-05-29T03:43:08.661Z,2.40
2019-05-29T03:45:37.977Z,2.50
2019-05-29T03:48:05.827Z,2.60
2019-05-29T03:50:34.893Z,2.80
2019-05-29T03:53:02.730Z,2.67
2019-05-29T03:55:31.575Z,2.70
2019-05-29T03:58:00.273Z,2.30
2019-05-29T04:00:31.948Z,2.60
2019-05-29T04:02:57.879Z,2.53
2019-05-29T04:05:26.847Z,2.57
2019-05-29T04:07:54.767Z,3.00
2019-05-29T04:10:29.377Z,2.60
2019-05-29T04:12:58.613Z,2.93
2019-05-29T04:15:27.502Z,2.60
2019-05-29T04:17:56.556Z,2.53
2019-05-29T04:20:24.462Z,2.40
2019-05-29T04:22:53.037Z,2.70
2019-05-29T04:25:20.692Z,3.07
2019-05-29T04:27:50.867Z,3.40
2019-05-29T04:30:18.912Z,3.67
2019-05-29T04:32:46.541Z,3.70
2019-05-29T04:35:14.179Z,3.70
2019-05-29T04:37:42.925Z,3.30
2019-05-29T04:40:10.947Z,3.00
2019-05-29T04:42:40.056Z,3.03
2019-05-29T04:45:09.016Z,2.87
2019-05-29T04:47:37.383Z,3.20
2019-05-29T04:50:06.262Z,2.93
2019-05-29T04:52:35.921Z,3.20
2019-05-29T04:55:04.125Z,3.30
2019-05-29T04:57:32.867Z,3.30
2019-05-29T05:00:00.856Z,3.20
2019-05-29T05:02:28.946Z,4.10
2019-05-29T05:04:57.298Z,2.83
2019-05-29T05:07:25.184Z,3.30
2019-05-29T05:09:53.499Z,3.33
2019-05-29T05:12:21.845Z,3.17
2019-05-29T05:14:49.492Z,2.80
2019-05-29T05:17:25.707Z,3.80
2019-05-29T05:19:49.661Z,3.47
2019-05-29T05:22:17.661Z,3.67
2019-05-29T05:24:45.598Z,3.60
2019-05-29T05:27:13.526Z,3.27
2019-05-29T05:29:41.230Z,3.40
2019-05-29T05:32:09.217Z,3.90
2019-05-29T05:34:38.700Z,4.20
2019-05-29T05:37:07.182Z,4.20
2019-05-29T05:39:35.157Z,3.90
2019-05-29T05:42:03.732Z,4.23
2019-05-29T05:44:32.842Z,3.93
2019-05-29T05:47:01.382Z,4.30
2019-05-29T05:49:29.057Z,3.73
2019-05-29T05:51:57.315Z,3.87
2019-05-29T05:54:25.870Z,3.40
2019-05-29T05:56:54.311Z,3.30
2019-05-29T05:59:22.234Z,3.17
2019-05-29T06:01:49.932Z,3.03
2019-05-29T06:04:17.884Z,3.40
2019-05-29T06:06:45.605Z,3.13
2019-05-29T06:09:13.481Z,2.47
2019-05-29T06:11:42.554Z,3.23
2019-05-29T06:14:10.604Z,2.87
2019-05-29T06:16:38.915Z,2.53
2019-05-29T06:19:07.368Z,2.73
2019-05-29T06:21:36.635Z,3.07
2019-05-29T06:24:04.621Z,2.70
2019-05-29T06:26:32.770Z,2.90
2019-05-29T06:29:01.139Z,2.43
2019-05-29T06:31:29.610Z,2.70
2019-05-29T06:33:57.853Z,2.50
2019-05-29T06:36:26.069Z,2.90
2019-05-29T06:38:54.734Z,2.57
2019-05-29T06:41:22.795Z,2.60
2019-05-29T06:43:50.424Z,2.93
2019-05-29T06:46:19.176Z,2.77
2019-05-29T06:48:58.594Z,2.67
2019-05-29T06:51:17.137Z,2.50
2019-05-29T06:53:44.858Z,2.47
2019-05-29T06:56:12.535Z,2.77
2019-05-29T06:58:41.987Z,2.80
2019-05-29T07:01:10.165Z,2.80
2019-05-29T07:03:39.696Z,2.70
2019-05-29T07:06:07.587Z,2.60
2019-05-29T07:08:39.961Z,2.10
2019-05-29T07:11:05.403Z,2.90
2019-05-29T07:13:35.232Z,2.90
2019-05-29T07:16:02.651Z,2.60
2019-05-29T07:18:30.546Z,2.70
2019-05-29T07:20:58.249Z,2.40
2019-05-29T07:23:25.953Z,2.50
2019-05-29T07:25:54.382Z,2.23
2019-05-29T07:28:23.109Z,2.20
2019-05-29T07:31:01.074Z,2.30
2019-05-29T07:33:20.762Z,1.90
2019-05-29T07:35:49.224Z,2.00
2019-05-29T07:38:17.429Z,2.40
2019-05-29T07:40:48.190Z,1.97
2019-05-29T07:43:15.702Z,1.80
2019-05-29T07:45:44.069Z,1.90
2019-05-29T07:48:11.791Z,1.43
2019-05-29T07:50:40.050Z,1.70
2019-05-29T07:53:07.811Z,1.80
2019-05-29T07:55:36.242Z,1.70
2019-05-29T07:58:04.581Z,1.50
2019-05-29T08:00:35.909Z,1.60
2019-05-29T08:03:02.355Z,1.70
2019-05-29T08:05:30.297Z,1.67
2019-05-29T08:07:57.956Z,1.77
2019-05-29T08:10:26.449Z,1.40
2019-05-29T08:12:55.962Z,1.43
2019-05-29T08:15:23.984Z,1.50
2019-05-29T08:17:51.943Z,1.40
2019-05-29T08:20:19.733Z,1.30
2019-05-29T08:22:48.519Z,1.20
2019-05-29T08:25:16.781Z,1.20
2019-05-29T08:27:45.082Z,1.40
2019-05-29T08:30:12.719Z,1.33
2019-05-29T08:32:40.865Z,1.43
2019-05-29T08:35:09.049Z,1.60
2019-05-29T08:37:37.033Z,1.53
2019-05-29T08:40:05.209Z,1.43
2019-05-29T08:42:32.857Z,1.40
2019-05-29T08:45:00.796Z,1.27
2019-05-29T08:47:29.390Z,1.33
2019-05-29T08:50:16.747Z,1.50
2019-05-29T08:52:26.712Z,1.20
2019-05-29T08:54:54.363Z,1.37
2019-05-29T08:57:22.381Z,1.07
2019-05-29T08:59:50.763Z,1.30
2019-05-29T09:02:18.707Z,1.20
2019-05-29T09:04:48.242Z,1.30
2019-05-29T09:07:16.369Z,1.10
2019-05-29T09:09:44.871Z,1.23
2019-05-29T09:12:13.227Z,1.10
2019-05-29T09:14:41.449Z,1.20
2019-05-29T09:17:09.405Z,1.30
2019-05-29T09:19:37.131Z,1.10
2019-05-29T09:22:05.476Z,1.10
2019-05-29T09:24:33.421Z,1.00
2019-05-29T09:27:01.701Z,1.07
2019-05-29T09:29:29.326Z,0.90
2019-05-29T09:31:57.277Z,1.10
2019-05-29T09:34:25.211Z,0.83
2019-05-29T09:36:55.746Z,0.90
2019-05-29T09:39:22.846Z,0.70
2019-05-29T09:41:51.172Z,0.90
2019-05-29T09:44:34.013Z,0.90
2019-05-29T09:46:49.547Z,0.90
2019-05-29T09:49:18.252Z,1.00
2019-05-29T09:51:46.365Z,1.00
2019-05-29T09:54:14.378Z,0.90
2019-05-29T09:56:42.765Z,0.93
2019-05-29T09:59:11.178Z,0.80
2019-05-29T10:01:39.192Z,1.00
2019-05-29T10:04:06.893Z,0.80
2019-05-29T10:06:35.254Z,0.80
2019-05-29T10:09:04.522Z,0.83
2019-05-29T10:11:32.485Z,0.70
2019-05-29T10:14:00.595Z,0.80
2019-05-29T10:16:28.975Z,0.80
2019-05-29T10:18:58.558Z,1.20
2019-05-29T10:21:39.190Z,1.00
2019-05-29T10:23:57.970Z,0.83
2019-05-29T10:26:27.013Z,0.73
2019-05-29T10:29:06.770Z,0.73
2019-05-29T10:31:24.972Z,0.90
2019-05-29T10:33:52.905Z,0.70
2019-05-29T10:36:21.092Z,0.90
2019-05-29T10:38:50.594Z,1.00
2019-05-29T10:41:18.429Z,0.70
2019-05-29T10:43:47.054Z,0.90
2019-05-29T10:46:15.180Z,0.80
2019-05-29T10:48:44.617Z,0.80
2019-05-29T10:51:13.128Z,1.00
2019-05-29T10:53:41.077Z,0.90
2019-05-29T10:56:09.029Z,1.03
2019-05-29T10:58:48.503Z,0.90
2019-05-29T11:01:06.624Z,1.00
2019-05-29T11:03:34.884Z,0.90
2019-05-29T11:06:02.520Z,1.27
2019-05-29T11:08:30.749Z,1.00
2019-05-29T11:10:58.768Z,1.00
2019-05-29T11:13:27.026Z,1.10
2019-05-29T11:15:54.999Z,1.00
2019-05-29T11:18:22.678Z,0.90
2019-05-29T11:20:51.368Z,1.20
2019-05-29T11:23:19.161Z,0.90
2019-05-29T11:25:47.774Z,0.90
2019-05-29T11:28:15.932Z,1.10
2019-05-29T11:30:43.874Z,1.20
2019-05-29T11:33:12.009Z,1.17
2019-05-29T11:35:54.826Z,1.00
2019-05-29T11:38:09.925Z,1.00
2019-05-29T11:40:38.317Z,1.10
2019-05-29T11:43:06.393Z,0.90
2019-05-29T11:45:35.636Z,1.00
2019-05-29T11:48:05.282Z,1.00
2019-05-29T11:50:33.221Z,0.90
2019-05-29T11:53:01.118Z,0.80
2019-05-29T11:55:29.084Z,0.90
2019-05-29T11:57:57.934Z,0.80
2019-05-29T12:00:26.546Z,0.80
2019-05-29T12:02:55.847Z,1.00
2019-05-29T12:05:23.618Z,0.93
2019-05-29T12:07:53.321Z,0.90
2019-05-29T12:10:21.306Z,1.00
2019-05-29T12:12:49.280Z,0.80
2019-05-29T12:15:18.888Z,0.90
2019-05-29T12:17:47.497Z,0.93
2019-05-29T12:20:31.138Z,0.90
2019-05-29T12:23:10.849Z,1.30
2019-05-29T12:25:15.281Z,1.10
2019-05-29T12:27:43.186Z,1.00
2019-05-29T12:30:11.127Z,0.97
2019-05-29T12:32:39.121Z,0.90
2019-05-29T12:35:07.144Z,1.00
2019-05-29T12:37:35.209Z,1.20
2019-05-29T12:40:03.826Z,1.10
2019-05-29T12:42:32.149Z,1.00
2019-05-29T12:44:59.776Z,1.00
2019-05-29T12:47:27.739Z,1.17
2019-05-29T12:49:55.677Z,0.97
2019-05-29T12:52:23.968Z,1.00
2019-05-29T12:54:51.613Z,0.90
2019-05-29T12:57:23.436Z,1.10
2019-05-29T12:59:49.284Z,0.97
2019-05-29T13:02:17.801Z,1.00
2019-05-29T13:05:07.104Z,0.90
2019-05-29T13:07:15.511Z,1.07
2019-05-29T13:09:43.149Z,0.93
2019-05-29T13:12:11.660Z,0.80
2019-05-29T13:14:39.319Z,0.90
2019-05-29T13:17:07.664Z,0.90
2019-05-29T13:19:35.664Z,0.90
2019-05-29T13:22:03.698Z,0.90
2019-05-29T13:24:32.008Z,1.10
2019-05-29T13:27:01.747Z,1.10
2019-05-29T13:29:29.914Z,1.07
2019-05-29T13:31:59.584Z,1.10
2019-05-29T13:34:27.789Z,1.03
2019-05-29T13:37:00.768Z,1.20
2019-05-29T13:39:29.181Z,1.00
2019-05-29T13:41:56.190Z,1.23
2019-05-29T13:44:23.929Z,0.80
2019-05-29T13:46:52.240Z,0.93
2019-05-29T13:49:20.404Z,0.90
2019-05-29T13:51:48.685Z,1.20
2019-05-29T13:54:18.169Z,1.10
2019-05-29T13:56:46.366Z,1.10
2019-05-29T13:59:14.225Z,1.27
2019-05-29T14:01:47.166Z,1.00
2019-05-29T14:04:11.694Z,0.90
2019-05-29T14:06:39.980Z,1.00
2019-05-29T14:09:09.514Z,1.00
2019-05-29T14:11:37.522Z,1.00
2019-05-29T14:14:08.004Z,0.90
2019-05-29T14:16:34.952Z,1.10
2019-05-29T14:19:04.793Z,0.80
2019-05-29T14:21:32.840Z,0.70
2019-05-29T14:24:02.773Z,0.63
2019-05-29T14:26:30.670Z,1.00
2019-05-29T14:28:58.444Z,0.60
2019-05-29T14:31:26.746Z,0.70
2019-05-29T14:33:55.014Z,0.70
2019-05-29T14:36:23.620Z,0.70
2019-05-29T14:38:51.569Z,0.60
2019-05-29T14:41:19.553Z,0.60
2019-05-29T14:43:47.786Z,0.80
2019-05-29T14:46:15.737Z,0.70
2019-05-29T14:48:43.742Z,0.70
2019-05-29T14:51:12.659Z,0.80
2019-05-29T14:53:40.374Z,0.80
2019-05-29T14:56:08.865Z,0.90
2019-05-29T14:58:36.910Z,0.80
2019-05-29T15:01:05.021Z,0.77
2019-05-29T15:03:32.952Z,0.70
2019-05-29T15:06:01.020Z,0.80
2019-05-29T15:08:29.757Z,1.07
2019-05-29T15:10:57.845Z,0.90
2019-05-29T15:13:25.937Z,0.90
2019-05-29T15:15:53.897Z,1.07
2019-05-29T15:18:21.884Z,0.90
2019-05-29T15:20:49.824Z,1.23
2019-05-29T15:23:17.501Z,1.20
2019-05-29T15:25:46.125Z,1.00
2019-05-29T15:28:14.574Z,1.10
2019-05-29T15:30:44.028Z,1.50
2019-05-29T15:33:12.684Z,1.43
2019-05-29T15:35:40.694Z,1.40
2019-05-29T15:38:08.797Z,1.50
2019-05-29T15:40:36.893Z,1.50
2019-05-29T15:43:04.789Z,1.43
2019-05-29T15:45:33.036Z,1.63
2019-05-29T15:48:01.157Z,1.60
2019-05-29T15:50:28.812Z,1.60
2019-05-29T15:52:56.988Z,1.87
2019-05-29T15:55:33.957Z,1.70
2019-05-29T15:57:54.520Z,1.30
2019-05-29T16:00:22.289Z,1.60
2019-05-29T16:02:50.327Z,1.90
2019-05-29T16:05:19.151Z,1.87
2019-05-29T16:07:47.096Z,1.70
2019-05-29T16:10:18.165Z,1.70
2019-05-29T16:12:44.448Z,2.10
2019-05-29T16:15:13.244Z,1.87
2019-05-29T16:17:41.713Z,2.30
2019-05-29T16:20:10.419Z,2.20
2019-05-29T16:22:38.874Z,1.90
2019-05-29T16:25:07.045Z,1.80
2019-05-29T16:27:35.093Z,1.90
2019-05-29T16:30:02.768Z,1.60
2019-05-29T16:32:30.772Z,2.00
2019-05-29T16:34:58.740Z,1.90
2019-05-29T16:37:26.395Z,2.10
2019-05-29T16:39:54.411Z,1.80
2019-05-29T16:42:22.163Z,2.00
2019-05-29T16:44:50.206Z,1.73
2019-05-29T16:47:18.688Z,1.80
2019-05-29T16:49:46.734Z,2.10
2019-05-29T16:52:14.932Z,2.37
2019-05-29T16:54:42.956Z,2.00
2019-05-29T16:57:11.364Z,2.03
2019-05-29T17:02:19.678Z,3.57
2019-05-29T17:04:47.984Z,2.30
2019-05-29T17:07:16.123Z,2.13
2019-05-29T17:09:44.314Z,2.10
2019-05-29T17:12:12.358Z,2.00
2019-05-29T17:14:39.991Z,1.80
2019-05-29T17:17:08.023Z,1.70
2019-05-29T17:19:36.112Z,1.90
2019-05-29T17:22:04.085Z,2.10
2019-05-29T17:24:32.020Z,2.20
2019-05-29T17:27:00.016Z,1.80
2019-05-29T17:29:28.047Z,1.80
2019-05-29T17:31:55.677Z,1.97
2019-05-29T17:34:25.216Z,1.70
2019-05-29T17:36:53.013Z,1.70
2019-05-29T17:39:21.441Z,1.93
2019-05-29T17:41:49.669Z,2.30
2019-05-29T17:44:17.451Z,1.90
2019-05-29T17:46:45.232Z,2.07
2019-05-29T17:49:12.964Z,2.30
2019-05-29T17:51:41.253Z,2.17
2019-05-29T17:54:09.385Z,1.77
2019-05-29T17:56:37.267Z,2.27
2019-05-29T17:59:04.960Z,2.50
2019-05-29T18:01:33.157Z,2.40
2019-05-29T18:04:00.832Z,2.07
2019-05-29T18:06:28.535Z,1.90
2019-05-29T18:08:56.763Z,1.90
2019-05-29T18:11:25.228Z,1.90
2019-05-29T18:13:53.317Z,2.10
2019-05-29T18:16:21.723Z,3.13
2019-05-29T18:18:50.152Z,2.10
2019-05-29T18:21:18.061Z,2.17
2019-05-29T18:23:46.457Z,1.70
2019-05-29T18:26:14.415Z,1.80
2019-05-29T18:28:42.033Z,1.60
2019-05-29T18:31:09.782Z,2.00
2019-05-29T18:33:37.834Z,1.80
2019-05-29T18:36:06.199Z,2.03
2019-05-29T18:38:33.925Z,2.00
2019-05-29T18:41:01.940Z,2.10
2019-05-29T18:43:29.960Z,2.60
2019-05-29T18:45:57.976Z,2.73
2019-05-29T18:48:25.644Z,2.80
2019-05-29T18:50:54.037Z,3.13
2019-05-29T18:53:22.737Z,3.53
2019-05-29T18:55:51.190Z,2.87
2019-05-29T18:58:19.159Z,2.27
2019-05-29T19:00:47.157Z,2.37
2019-05-29T19:03:15.095Z,2.07
2019-05-29T19:05:43.533Z,3.30
2019-05-29T19:08:11.584Z,2.37
2019-05-29T19:10:39.228Z,4.87
2019-05-29T19:13:07.417Z,7.37
2019-05-29T19:15:35.323Z,3.73
2019-05-29T19:18:03.293Z,2.70
2019-05-29T19:20:30.942Z,2.60
2019-05-29T19:22:58.936Z,2.10
2019-05-29T19:25:26.912Z,4.07
2019-05-29T19:27:54.613Z,2.80
2019-05-29T19:30:22.882Z,2.83
2019-05-29T19:32:51.041Z,3.45
2019-05-29T19:35:19.309Z,8.60
2019-05-29T19:37:47.620Z,8.57
2019-05-29T19:40:15.678Z,2.70
2019-05-29T19:42:43.726Z,2.20
2019-05-29T19:45:12.658Z,2.30
2019-05-29T19:47:40.601Z,1.80
2019-05-29T19:50:11.444Z,2.07
2019-05-29T19:52:38.362Z,1.97
2019-05-29T19:55:06.553Z,2.67
2019-05-29T19:57:51.805Z,2.17
2019-05-29T20:00:04.343Z,3.30
2019-05-29T20:02:32.713Z,2.60
2019-05-29T20:05:00.780Z,2.00
2019-05-29T20:07:29.019Z,1.73
2019-05-29T20:09:57.431Z,1.90
2019-05-29T20:12:27.446Z,2.17
2019-05-29T20:14:55.482Z,2.17
2019-05-29T20:17:23.166Z,3.33
2019-05-29T20:19:51.789Z,2.60
2019-05-29T20:22:19.657Z,2.03
2019-05-29T20:24:47.312Z,4.07
2019-05-29T20:27:14.958Z,4.10
2019-05-29T20:29:42.901Z,2.30
2019-05-29T20:32:11.209Z,2.00
2019-05-29T20:34:39.222Z,2.13
2019-05-29T20:37:07.472Z,2.23
2019-05-29T20:39:36.319Z,2.47
2019-05-29T20:42:04.043Z,2.03
2019-05-29T20:44:32.587Z,2.10
2019-05-29T20:47:00.569Z,2.33
2019-05-29T20:49:28.841Z,2.40
2019-05-29T20:51:56.750Z,2.50
2019-05-29T20:54:24.741Z,2.50
2019-05-29T20:56:52.699Z,2.70
2019-05-29T20:59:20.919Z,2.93
2019-05-29T21:01:49.478Z,2.97
2019-05-29T21:04:17.103Z,3.43
2019-05-29T21:06:45.136Z,4.50
2019-05-29T21:09:12.764Z,4.87
2019-05-29T21:11:41.791Z,3.80
2019-05-29T21:14:10.058Z,3.30
2019-05-29T21:16:37.970Z,3.43
2019-05-29T21:19:05.920Z,3.10
2019-05-29T21:21:34.177Z,3.10
2019-05-29T21:24:02.233Z,3.20
2019-05-29T21:26:30.258Z,2.60
2019-05-29T21:28:58.004Z,2.80
2019-05-29T21:31:26.427Z,2.80
2019-05-29T21:33:54.328Z,2.80
2019-05-29T21:36:21.980Z,2.63
2019-05-29T21:38:49.890Z,2.80
2019-05-29T21:41:18.284Z,2.40
2019-05-29T21:43:46.987Z,2.43
2019-05-29T21:46:15.168Z,2.50
2019-05-29T21:48:43.340Z,2.37
2019-05-29T21:51:11.617Z,2.23
2019-05-29T21:53:39.588Z,2.70
2019-05-29T21:56:07.303Z,3.00
2019-05-29T21:58:35.611Z,2.77
2019-05-29T22:01:03.932Z,2.70
2019-05-29T22:03:31.598Z,3.10
2019-05-29T22:05:59.921Z,3.00
2019-05-29T22:08:27.944Z,2.97
2019-05-29T22:10:55.845Z,3.30
2019-05-29T22:13:23.869Z,3.33
2019-05-29T22:15:52.634Z,3.00
2019-05-29T22:18:20.447Z,2.93
2019-05-29T22:20:48.413Z,2.80
2019-05-29T22:23:16.057Z,2.70
2019-05-29T22:25:44.349Z,3.00
2019-05-29T22:28:12.033Z,2.63
2019-05-29T22:30:39.984Z,2.90
2019-05-29T22:33:07.726Z,3.00
2019-05-29T22:35:35.615Z,3.27
2019-05-29T22:38:03.632Z,3.60
2019-05-29T22:40:31.909Z,4.17
2019-05-29T22:43:00.208Z,3.87
2019-05-29T22:45:28.403Z,3.97
2019-05-29T22:47:56.331Z,3.67
2019-05-29T22:50:24.249Z,3.63
2019-05-29T22:52:51.863Z,3.50
2019-05-29T22:55:20.284Z,3.30
2019-05-29T22:57:48.212Z,3.20
2019-05-29T23:00:17.212Z,3.20
2019-05-29T23:02:45.277Z,2.93
2019-05-29T23:05:13.401Z,3.20
2019-05-29T23:07:41.312Z,3.00
2019-05-29T23:10:09.808Z,3.10
2019-05-29T23:12:37.749Z,3.20
2019-05-29T23:15:05.623Z,2.80
2019-05-29T23:17:33.717Z,2.70
2019-05-29T23:20:04.234Z,2.80
2019-05-29T23:22:32.387Z,3.00
2019-05-29T23:25:00.940Z,2.83
2019-05-29T23:27:28.656Z,2.87
2019-05-29T23:29:56.970Z,3.20
2019-05-29T23:32:24.952Z,2.83
2019-05-29T23:34:53.017Z,3.30
2019-05-29T23:37:20.676Z,3.30
2019-05-29T23:39:49.020Z,3.27
2019-05-29T23:42:16.653Z,3.10
2019-05-29T23:44:44.641Z,2.70
2019-05-29T23:47:12.862Z,2.97
2019-05-29T23:49:40.912Z,3.03
2019-05-29T23:52:08.599Z,3.17
2019-05-29T23:54:36.254Z,3.37
2019-05-29T23:57:04.330Z,3.00
2019-05-29T23:59:32.344Z,2.73
